Weather History for Rutland, VT

Change the Weather History Date:

Friday, October 12, 2012

  Actual Average Record
Temperature  
Mean Temperature 40 °F -  
Max Temperature 52 °F - 82 °F (1949)
Min Temperature 27 °F - 22 °F (1956)
Degree Days  
Heating Degree Days 25    
Month to date heating degree days 149  
Since 1 July heating degree days 380  
Cooling Degree Days 0    
Month to date cooling degree days 0  
Year to date cooling degree days 411  
Moisture  
Dew Point 29 °F    
Average Humidity 68    
Maximum Humidity 92    
Minimum Humidity 44    
Precipitation  
Precipitation 0.04 in - 0.92 in (1975)
Month to date precipitation 1.00  
Year to date precipitation 19.23  
Sea Level Pressure  
Sea Level Pressure 30.13 in    
Wind  
Wind Speed 8 mph (NW)    
Max Wind Speed 16 mph    
Max Gust Speed 24 mph    
Visibility 10 miles    
Events      
T = Trace of Precipitation, MM = Missing Value Source: NWS Daily Summary

Daily Weather History Graph

Daily Weather History Graph

Search for Another Location

Airport:

Trip Planner

Search our weather history database for the weather conditions in past years. The results will help you decide how hot, cold, wet, or windy it might be!

Date:

Astronomy

Oct. 12, 2012 Rise Set
Actual Time 7:02 AM EDT 6:12 PM EDT
Civil Twilight 6:34 AM EDT 6:41 PM EDT
Nautical Twilight 6:00 AM EDT 7:14 PM EDT
Astronomical Twilight 5:27 AM EDT 7:47 PM EDT
Moon 3:37 AM EDT (10/12) 4:24 PM EDT (10/12)
Length of Visible Light 12h 07m
Length of Day
11h 09m
Waning Crescent, 11% of the Moon is Illuminated
Oct 12
Waning Crescent
Oct 15
New
Oct 21
First Quarter
Oct 29
Full
Nov 6
Last Quarter

Hourly Weather History & Observations

Time (EDT) Temp. Windchill Dew Point Humidity Pressure Visibility Wind Dir Wind Speed Gust Speed Precip Events Conditions
12:15 AM 42.8 °F 39.3 °F 33.8 °F 70% 30.02 in 10.0 mi ESE 5.8 mph - N/A   Overcast
12:35 AM 44.6 °F 42.2 °F 33.8 °F 66% 30.01 in 10.0 mi SE 4.6 mph - N/A   Overcast
12:55 AM 46.4 °F 43.5 °F 33.8 °F 62% 30.01 in 10.0 mi SSE 5.8 mph - N/A   Overcast
1:15 AM 50.0 °F - 30.2 °F 47% 30.01 in 10.0 mi WSW 11.5 mph 20.7 mph N/A   Mostly Cloudy
1:35 AM 51.8 °F - 30.2 °F 44% 30.00 in 10.0 mi SW 9.2 mph 25.3 mph N/A   Mostly Cloudy
1:55 AM 51.8 °F - 30.2 °F 44% 30.00 in 10.0 mi SW 10.4 mph 24.2 mph N/A   Mostly Cloudy
2:15 AM 51.8 °F - 30.2 °F 44% 29.99 in 10.0 mi WSW 8.1 mph 19.6 mph N/A   Mostly Cloudy
2:35 AM 50.0 °F - 30.2 °F 47% 29.98 in 10.0 mi SW 10.4 mph - N/A   Overcast
2:55 AM 50.0 °F - 30.2 °F 47% 29.97 in 10.0 mi SW 8.1 mph 24.2 mph N/A   Overcast
3:35 AM 50.0 °F - 30.2 °F 47% 29.95 in 10.0 mi SW 10.4 mph 18.4 mph N/A   Overcast
3:55 AM 50.0 °F - 30.2 °F 47% 29.96 in 10.0 mi WSW 10.4 mph 20.7 mph N/A   Overcast
4:15 AM 50.0 °F - 30.2 °F 47% 29.96 in 10.0 mi West 6.9 mph 16.1 mph N/A   Overcast
4:35 AM 48.2 °F - 33.8 °F 58% 29.96 in 10.0 mi WSW 13.8 mph 21.9 mph N/A   Overcast
4:55 AM 46.4 °F 41.1 °F 35.6 °F 66% 29.97 in 10.0 mi WSW 11.5 mph 21.9 mph N/A   Overcast
5:35 AM 44.6 °F 40.2 °F 37.4 °F 76% 29.97 in 10.0 mi WSW 8.1 mph - 0.01 in   Overcast
5:55 AM 44.6 °F 41.4 °F 37.4 °F 76% 29.99 in 10.0 mi West 5.8 mph - 0.02 in   Overcast
6:15 AM 44.6 °F 39.7 °F 37.4 °F 76% 30.01 in 9.0 mi WNW 9.2 mph - 0.01 in   Overcast
6:55 AM 42.8 °F 40.1 °F 37.4 °F 81% 30.01 in 10.0 mi WNW 4.6 mph - 0.02 in   Overcast
7:15 AM 42.8 °F 38.6 °F 37.4 °F 81% 30.02 in 10.0 mi NW 6.9 mph - 0.01 in   Overcast
7:35 AM 42.8 °F 41.1 °F 37.4 °F 81% 30.03 in 10.0 mi NW 3.5 mph - 0.01 in   Overcast
8:15 AM 42.8 °F 41.1 °F 37.4 °F 81% 30.05 in 10.0 mi WNW 3.5 mph - N/A   Overcast
8:35 AM 42.8 °F 38.6 °F 37.4 °F 81% 30.05 in 10.0 mi NNW 6.9 mph - N/A   Overcast
8:55 AM 42.8 °F 38.6 °F 32.0 °F 66% 30.06 in 10.0 mi NW 6.9 mph - N/A   Mostly Cloudy
9:15 AM 41.0 °F 36.4 °F 33.8 °F 76% 30.07 in 10.0 mi WNW 6.9 mph - N/A   Overcast
9:35 AM 41.0 °F 34.7 °F 33.8 °F 76% 30.08 in 10.0 mi NW 10.4 mph 18.4 mph N/A   Overcast
9:55 AM 41.0 °F 36.4 °F 35.6 °F 81% 30.08 in 10.0 mi North 6.9 mph - N/A   Overcast
10:15 AM 39.2 °F 32.0 °F 35.6 °F 87% 30.09 in 10.0 mi NNW 11.5 mph - N/A   Mostly Cloudy
10:55 AM 39.2 °F 32.5 °F 30.2 °F 70% 30.11 in 10.0 mi NNW 10.4 mph 18.4 mph N/A   Overcast
11:15 AM 42.8 °F 35.1 °F 33.8 °F 70% 30.10 in 10.0 mi NNW 16.1 mph 20.7 mph N/A   Mostly Cloudy
11:35 AM 44.6 °F 38.1 °F 28.4 °F 53% 30.11 in 10.0 mi NNW 13.8 mph 21.9 mph N/A   Partly Cloudy
11:55 AM 44.6 °F 37.4 °F 28.4 °F 53% 30.11 in 10.0 mi North 16.1 mph 23.0 mph N/A   Scattered Clouds
12:15 PM 44.6 °F 38.4 °F 28.4 °F 53% 30.12 in 10.0 mi NW 12.7 mph 18.4 mph N/A   Mostly Cloudy
12:35 PM 46.4 °F 40.1 °F 28.4 °F 50% 30.12 in 10.0 mi North 15.0 mph 26.5 mph N/A   Mostly Cloudy
12:55 PM 44.6 °F 38.1 °F 24.8 °F 46% 30.12 in 10.0 mi NNW 13.8 mph 20.7 mph N/A   Mostly Cloudy
1:15 PM 44.6 °F 39.7 °F 26.6 °F 49% 30.13 in 10.0 mi NNW 9.2 mph 18.4 mph N/A   Mostly Cloudy
1:35 PM 44.6 °F 39.2 °F 26.6 °F 49% 30.13 in 10.0 mi NW 10.4 mph - N/A   Mostly Cloudy
1:55 PM 44.6 °F 37.4 °F 26.6 °F 49% 30.14 in 10.0 mi North 16.1 mph 20.7 mph N/A   Overcast
2:35 PM 44.6 °F 38.4 °F 24.8 °F 46% 30.15 in 10.0 mi NNW 12.7 mph 20.7 mph N/A   Scattered Clouds
2:55 PM 44.6 °F 39.7 °F 26.6 °F 49% 30.16 in 10.0 mi North 9.2 mph 17.3 mph N/A   Mostly Cloudy
3:15 PM 44.6 °F 40.2 °F 24.8 °F 46% 30.17 in 10.0 mi NW 8.1 mph 18.4 mph N/A   Overcast
3:35 PM 42.8 °F 37.5 °F 26.6 °F 53% 30.18 in 10.0 mi NNW 9.2 mph - N/A   Overcast
3:55 PM 42.8 °F 36.6 °F 24.8 °F 49% 30.19 in 10.0 mi NNW 11.5 mph 20.7 mph N/A   Overcast
4:15 PM 42.8 °F 36.6 °F 23.0 °F 46% 30.19 in 10.0 mi NNW 11.5 mph 20.7 mph N/A   Mostly Cloudy
4:35 PM 42.8 °F 35.4 °F 24.8 °F 49% 30.20 in 10.0 mi NW 15.0 mph 24.2 mph N/A   Mostly Cloudy
4:55 PM 41.0 °F 34.7 °F 24.8 °F 53% 30.21 in 10.0 mi NNW 10.4 mph 20.7 mph N/A   Mostly Cloudy
5:35 PM 39.2 °F 33.0 °F 21.2 °F 49% 30.23 in 10.0 mi North 9.2 mph 18.4 mph N/A   Overcast
6:15 PM 39.2 °F 31.6 °F 21.2 °F 49% 30.26 in 10.0 mi NNW 12.7 mph 18.4 mph N/A   Mostly Cloudy
6:55 PM 37.4 °F 32.8 °F 21.2 °F 52% 30.28 in 10.0 mi NNW 5.8 mph - N/A   Clear
7:15 PM 37.4 °F 33.8 °F 23.0 °F 56% 30.29 in 10.0 mi NW 4.6 mph - N/A   Clear
7:35 PM 35.6 °F 31.7 °F 23.0 °F 60% 30.30 in 10.0 mi NNW 4.6 mph - N/A   Clear
7:55 PM 35.6 °F 32.8 °F 23.0 °F 60% 30.31 in 10.0 mi North 3.5 mph - N/A   Clear
8:15 PM 35.6 °F 31.7 °F 24.8 °F 65% 30.32 in 10.0 mi NW 4.6 mph - N/A   Clear
8:55 PM 32.0 °F 28.7 °F 24.8 °F 75% 30.33 in 10.0 mi SSE 3.5 mph - N/A   Clear
9:15 PM 30.2 °F - 26.6 °F 86% 30.34 in 10.0 mi Calm Calm - N/A   Clear
9:35 PM 30.2 °F - 24.8 °F 80% 30.35 in 10.0 mi Calm Calm - N/A   Clear
10:15 PM 28.4 °F - 26.6 °F 93% 30.36 in 10.0 mi Calm Calm - N/A   Clear
10:35 PM 28.4 °F 24.6 °F 26.6 °F 93% 30.36 in 10.0 mi SE 3.5 mph - N/A   Clear
10:55 PM 28.4 °F - 26.6 °F 93% 30.36 in 10.0 mi Calm Calm - N/A   Clear
11:15 PM 28.4 °F - 26.6 °F 93% 30.37 in 10.0 mi Calm Calm - N/A   Clear
11:35 PM 28.4 °F 24.6 °F 24.8 °F 86% 30.37 in 10.0 mi SE 3.5 mph - N/A   Clear
11:55 PM 28.4 °F 22.2 °F 24.8 °F 86% 30.37 in 10.0 mi SE 5.8 mph - N/A   Clear